createdAt,value
2019-04-20T00:01:32.189Z,22.10
2019-04-20T00:04:01.588Z,20.90
2019-04-20T00:06:43.396Z,21.23
2019-04-20T00:09:12.065Z,22.77
2019-04-20T00:11:51.717Z,21.73
2019-04-20T00:14:17.056Z,22.13
2019-04-20T00:16:42.211Z,21.35
2019-04-20T00:19:15.355Z,21.02
2019-04-20T00:21:53.504Z,21.77
2019-04-20T00:24:33.497Z,22.65
2019-04-20T00:27:22.408Z,21.68
2019-04-20T00:29:50.894Z,22.27
2019-04-20T00:32:14.374Z,22.13
2019-04-20T00:34:40.688Z,22.95
2019-04-20T00:37:10.880Z,21.82
2019-04-20T00:39:42.710Z,21.70
2019-04-20T00:42:16.218Z,21.80
2019-04-20T00:44:55.142Z,21.23
2019-04-20T00:47:34.496Z,21.20
2019-04-20T00:50:08.154Z,21.17
2019-04-20T00:52:35.327Z,21.30
2019-04-20T00:54:58.017Z,21.70
2019-04-20T00:57:38.077Z,22.27
2019-04-20T01:00:21.493Z,23.40
2019-04-20T01:02:43.513Z,23.67
2019-04-20T01:05:22.937Z,22.02
2019-04-20T01:07:49.649Z,21.77
2019-04-20T01:10:19.779Z,22.73
2019-04-20T01:12:52.086Z,20.85
2019-04-20T01:15:32.279Z,21.30
2019-04-20T01:17:55.011Z,21.50
2019-04-20T01:20:26.376Z,21.27
2019-04-20T01:23:04.563Z,20.62
2019-04-20T01:25:35.590Z,20.85
2019-04-20T01:28:21.893Z,21.52
2019-04-20T01:30:39.758Z,20.85
2019-04-20T01:33:24.403Z,20.95
2019-04-20T01:35:53.452Z,22.22
2019-04-20T01:38:29.578Z,21.80
2019-04-20T01:40:44.748Z,21.27
2019-04-20T01:43:16.353Z,20.17
2019-04-20T01:45:47.616Z,22.32
2019-04-20T01:48:22.887Z,21.27
2019-04-20T01:50:59.432Z,20.97
2019-04-20T01:53:41.409Z,21.93
2019-04-20T01:56:15.347Z,23.92
2019-04-20T01:58:52.414Z,35.48
2019-04-20T02:01:31.110Z,41.90
2019-04-20T02:04:07.337Z,40.95
2019-04-20T02:06:43.527Z,38.78
2019-04-20T02:09:17.196Z,31.62
2019-04-20T02:52:22.647Z,25.00
2019-04-20T02:54:52.399Z,24.07
2019-04-20T03:04:25.820Z,22.75
2019-04-20T03:07:06.793Z,21.73
2019-04-20T03:09:41.193Z,22.87
2019-04-20T03:12:16.761Z,24.02
2019-04-20T03:14:39.404Z,23.30
2019-04-20T03:17:21.624Z,22.42
2019-04-20T03:19:46.352Z,23.05
2019-04-20T03:22:35.031Z,22.98
2019-04-20T03:24:54.017Z,23.12
2019-04-20T03:27:25.058Z,22.77
2019-04-20T03:30:07.651Z,22.52
2019-04-20T03:37:42.163Z,20.85
2019-04-20T03:40:09.857Z,21.70
2019-04-20T03:42:27.215Z,20.92
2019-04-20T03:45:04.160Z,21.62
2019-04-20T03:47:38.453Z,21.33
2019-04-20T03:50:29.302Z,22.05
2019-04-20T03:53:04.444Z,22.50
2019-04-20T03:55:34.294Z,21.93
2019-04-20T03:58:10.102Z,22.35
2019-04-20T04:00:58.301Z,22.37
2019-04-20T04:03:36.416Z,22.52
2019-04-20T04:05:55.548Z,21.80
2019-04-20T04:08:25.412Z,22.93
2019-04-20T04:11:16.252Z,24.72
2019-04-20T04:13:37.745Z,22.17
2019-04-20T04:16:14.772Z,23.55
2019-04-20T04:39:29.391Z,23.10
2019-04-20T04:42:07.853Z,22.73
2019-04-20T04:44:26.382Z,22.30
2019-04-20T04:46:54.090Z,21.62
2019-04-20T04:49:27.591Z,21.52
2019-04-20T04:51:59.184Z,22.27
2019-04-20T04:54:33.828Z,22.17
2019-04-20T04:56:55.056Z,22.30
2019-04-20T04:59:25.769Z,22.62
2019-04-20T05:01:58.090Z,21.57
2019-04-20T05:05:11.814Z,22.52
2019-04-20T05:07:47.840Z,21.93
2019-04-20T05:10:08.211Z,21.37
2019-04-20T05:12:40.935Z,25.08
2019-04-20T05:15:22.747Z,23.35
2019-04-20T05:18:05.807Z,22.73
2019-04-20T05:23:31.730Z,22.52
2019-04-20T05:26:14.552Z,23.38
2019-04-20T05:28:42.109Z,23.73
2019-04-20T05:31:03.615Z,23.95
2019-04-20T05:33:57.121Z,23.18
2019-04-20T05:39:22.455Z,23.55
2019-04-20T05:41:46.744Z,22.93
2019-04-20T05:44:16.928Z,24.27
2019-04-20T05:47:03.010Z,23.77
2019-04-20T05:49:31.685Z,24.18
2019-04-20T05:52:10.243Z,23.87
2019-04-20T05:54:38.841Z,23.65
2019-04-20T05:57:14.461Z,24.55
2019-04-20T05:59:45.309Z,24.75
2019-04-20T06:02:16.956Z,24.27
2019-04-20T06:04:59.666Z,23.73
2019-04-20T06:07:24.009Z,25.50
2019-04-20T06:09:54.559Z,24.57
2019-04-20T06:12:28.571Z,23.92
2019-04-20T06:14:52.252Z,24.27
2019-04-20T06:17:31.676Z,24.07
2019-04-20T06:20:13.493Z,23.27
2019-04-20T06:25:31.588Z,24.67
2019-04-20T06:28:02.369Z,23.65
2019-04-20T06:30:13.682Z,24.23
2019-04-20T06:33:38.644Z,22.67
2019-04-20T06:36:13.417Z,21.75
2019-04-20T06:38:49.718Z,22.62
2019-04-20T06:41:18.649Z,23.02
2019-04-20T06:43:40.869Z,23.18
2019-04-20T06:46:16.911Z,23.92
2019-04-20T06:48:48.542Z,24.30
2019-04-20T06:51:23.407Z,22.10
2019-04-20T06:53:52.674Z,22.02
2019-04-20T06:56:35.439Z,21.30
2019-04-20T06:59:12.595Z,21.30
2019-04-20T07:01:45.066Z,21.42
2019-04-20T07:06:50.648Z,20.62
2019-04-20T07:09:23.435Z,20.77
2019-04-20T07:11:49.143Z,20.05
2019-04-20T07:14:11.090Z,21.10
2019-04-20T07:19:31.387Z,21.77
2019-04-20T07:22:23.109Z,20.37
2019-04-20T07:24:48.314Z,21.42
2019-04-20T07:27:17.823Z,21.80
2019-04-20T07:32:54.907Z,20.85
2019-04-20T07:35:19.802Z,20.90
2019-04-20T07:40:26.866Z,19.62
2019-04-20T07:43:07.914Z,19.80
2019-04-20T07:45:46.704Z,19.62
2019-04-20T07:50:49.848Z,20.15
2019-04-20T07:53:26.063Z,20.17
2019-04-20T07:56:16.701Z,18.52
2019-04-20T07:58:25.234Z,18.37
2019-04-20T08:01:15.220Z,17.80
2019-04-20T08:03:58.778Z,18.52
2019-04-20T08:06:18.907Z,18.23
2019-04-20T08:08:57.316Z,18.12
2019-04-20T08:11:41.170Z,18.77
2019-04-20T08:14:16.306Z,18.12
2019-04-20T08:19:13.270Z,17.75
2019-04-20T08:21:48.503Z,17.32
2019-04-20T08:30:26.971Z,17.92
2019-04-20T08:33:00.406Z,16.75
2019-04-20T08:35:43.584Z,16.87
2019-04-20T08:38:35.250Z,16.73
2019-04-20T08:40:44.720Z,16.85
2019-04-20T08:43:34.489Z,17.40
2019-04-20T08:45:46.593Z,16.87
2019-04-20T08:48:27.410Z,16.87
2019-04-20T08:50:50.802Z,15.85
2019-04-20T08:53:27.678Z,17.02
2019-04-20T08:55:50.097Z,16.95
2019-04-20T08:58:09.158Z,16.77
2019-04-20T09:00:53.578Z,17.73
2019-04-20T09:03:28.475Z,16.48
2019-04-20T09:06:03.545Z,17.50
2019-04-20T09:08:36.665Z,18.02
2019-04-20T09:11:15.381Z,15.53
2019-04-20T09:13:41.416Z,15.85
2019-04-20T09:16:06.661Z,15.43
2019-04-20T09:19:03.608Z,15.38
2019-04-20T09:21:40.335Z,14.47
2019-04-20T09:26:57.312Z,13.72
2019-04-20T09:29:28.451Z,14.73
2019-04-20T09:32:00.340Z,14.35
2019-04-20T09:34:45.233Z,15.15
2019-04-20T09:37:30.598Z,15.78
2019-04-20T09:40:08.648Z,15.38
2019-04-20T09:42:21.413Z,14.33
2019-04-20T09:47:53.232Z,14.25
2019-04-20T09:50:37.644Z,13.32
2019-04-20T09:53:10.081Z,14.03
2019-04-20T09:55:37.750Z,13.98
2019-04-20T09:58:12.653Z,13.50
2019-04-20T10:00:50.642Z,12.78
2019-04-20T10:03:13.215Z,13.30
2019-04-20T10:05:41.199Z,12.93
2019-04-20T10:08:13.537Z,11.88
2019-04-20T10:10:48.756Z,11.90
2019-04-20T10:13:19.523Z,11.38
2019-04-20T10:16:11.350Z,11.97
2019-04-20T10:18:46.783Z,11.28
2019-04-20T10:21:15.769Z,11.55
2019-04-20T10:23:46.606Z,11.50
2019-04-20T10:26:18.662Z,11.88
2019-04-20T10:28:49.767Z,11.60
2019-04-20T10:31:24.537Z,11.43
2019-04-20T10:33:59.746Z,10.93
2019-04-20T10:36:39.333Z,11.15
2019-04-20T10:39:11.049Z,11.63
2019-04-20T10:41:50.181Z,10.95
2019-04-20T10:44:16.728Z,10.82
2019-04-20T10:46:49.052Z,11.60
2019-04-20T10:49:22.796Z,11.75
2019-04-20T10:54:44.769Z,11.48
2019-04-20T10:57:17.771Z,12.07
2019-04-20T10:59:49.838Z,11.60
2019-04-20T11:02:22.024Z,11.25
2019-04-20T11:04:52.741Z,12.20
2019-04-20T11:07:26.348Z,12.30
2019-04-20T11:10:10.639Z,13.28
2019-04-20T11:12:30.457Z,13.90
2019-04-20T11:15:01.185Z,14.25
2019-04-20T11:17:33.516Z,14.55
2019-04-20T11:20:05.410Z,13.88
2019-04-20T11:22:36.313Z,15.18
2019-04-20T11:25:08.371Z,16.05
2019-04-20T11:27:40.410Z,15.45
2019-04-20T11:30:12.033Z,16.00
2019-04-20T11:32:44.224Z,15.35
2019-04-20T11:35:24.095Z,15.13
2019-04-20T11:37:49.051Z,16.62
2019-04-20T11:40:21.074Z,16.25
2019-04-20T11:42:53.282Z,17.57
2019-04-20T11:45:24.728Z,17.55
2019-04-20T11:47:55.755Z,19.15
2019-04-20T11:50:27.498Z,19.07
2019-04-20T11:52:59.511Z,19.15
2019-04-20T11:55:30.710Z,19.75
2019-04-20T11:58:01.806Z,20.40
2019-04-20T12:00:52.251Z,18.75
2019-04-20T12:03:33.368Z,19.05
2019-04-20T12:06:02.812Z,19.00
2019-04-20T12:08:32.713Z,19.12
2019-04-20T12:11:20.461Z,19.30
2019-04-20T12:13:38.563Z,18.75
2019-04-20T12:16:09.888Z,19.48
2019-04-20T12:18:42.138Z,19.23
2019-04-20T12:21:12.987Z,19.77
2019-04-20T12:23:44.551Z,18.32
2019-04-20T12:26:16.104Z,19.17
2019-04-20T12:28:47.589Z,20.30
2019-04-20T12:31:22.776Z,20.10
2019-04-20T12:33:50.601Z,20.00
2019-04-20T12:36:22.043Z,20.55
2019-04-20T12:38:53.182Z,19.48
2019-04-20T12:41:34.466Z,19.25
2019-04-20T12:43:56.285Z,19.27
2019-04-20T12:46:29.634Z,18.32
2019-04-20T12:49:01.753Z,20.27
2019-04-20T12:51:37.715Z,18.90
2019-04-20T12:54:06.688Z,19.90
2019-04-20T12:56:38.341Z,19.90
2019-04-20T12:59:09.620Z,20.15
2019-04-20T13:01:41.519Z,19.48
2019-04-20T13:04:12.588Z,18.67
2019-04-20T13:06:44.660Z,19.02
2019-04-20T13:09:18.662Z,19.05
2019-04-20T13:11:57.359Z,19.52
2019-04-20T13:14:35.614Z,19.00
2019-04-20T13:17:06.457Z,19.27
2019-04-20T13:19:37.911Z,20.20
2019-04-20T13:22:10.871Z,19.25
2019-04-20T13:24:43.067Z,19.45
2019-04-20T13:27:14.387Z,18.60
2019-04-20T13:29:47.899Z,17.67
2019-04-20T13:32:18.110Z,19.02
2019-04-20T13:34:49.945Z,18.12
2019-04-20T13:37:22.008Z,19.37
2019-04-20T13:39:54.893Z,19.05
2019-04-20T13:42:28.521Z,19.45
2019-04-20T13:44:59.081Z,19.30
2019-04-20T13:47:30.623Z,20.50
2019-04-20T13:50:03.412Z,20.35
2019-04-20T13:52:35.032Z,19.48
2019-04-20T13:55:10.830Z,19.15
2019-04-20T13:57:51.653Z,19.92
2019-04-20T14:00:33.851Z,18.92
2019-04-20T14:03:07.002Z,20.27
2019-04-20T14:05:38.542Z,19.92
2019-04-20T14:08:11.559Z,20.27
2019-04-20T14:10:42.702Z,20.12
2019-04-20T14:13:17.039Z,19.67
2019-04-20T14:15:47.024Z,20.43
2019-04-20T14:18:19.323Z,20.80
2019-04-20T14:20:52.062Z,20.77
2019-04-20T14:23:25.227Z,19.70
2019-04-20T14:25:56.638Z,20.65
2019-04-20T14:28:27.552Z,20.72
2019-04-20T14:30:58.556Z,19.87
2019-04-20T14:33:30.859Z,20.50
2019-04-20T14:36:03.147Z,20.92
2019-04-20T14:38:33.983Z,20.75
2019-04-20T14:41:06.311Z,19.60
2019-04-20T14:43:39.915Z,19.62
2019-04-20T14:46:10.933Z,19.62
2019-04-20T14:48:42.694Z,19.57
2019-04-20T14:51:13.926Z,19.35
2019-04-20T14:53:45.347Z,18.57
2019-04-20T14:56:17.648Z,19.45
2019-04-20T14:58:55.459Z,19.40
2019-04-20T15:01:36.602Z,19.25
2019-04-20T15:04:13.263Z,19.10
2019-04-20T15:06:40.101Z,20.23
2019-04-20T15:09:14.685Z,20.32
2019-04-20T15:11:46.729Z,19.55
2019-04-20T15:14:18.674Z,20.20
2019-04-20T15:16:50.922Z,20.20
2019-04-20T15:19:23.452Z,19.05
2019-04-20T15:21:57.625Z,19.52
2019-04-20T15:24:29.399Z,20.12
2019-04-20T15:27:00.484Z,19.35
2019-04-20T15:29:32.571Z,20.72
2019-04-20T15:32:04.151Z,20.40
2019-04-20T15:34:35.269Z,20.17
2019-04-20T15:37:06.182Z,20.40
2019-04-20T15:39:54.940Z,20.57
2019-04-20T15:42:25.779Z,20.17
2019-04-20T15:44:57.709Z,20.92
2019-04-20T15:47:29.990Z,21.80
2019-04-20T15:50:02.492Z,20.02
2019-04-20T15:52:56.594Z,19.98
2019-04-20T15:55:31.006Z,20.70
2019-04-20T15:57:59.529Z,20.15
2019-04-20T16:00:30.202Z,18.73
2019-04-20T16:03:03.344Z,20.23
2019-04-20T16:06:01.228Z,19.40
2019-04-20T16:08:35.112Z,19.95
2019-04-20T16:11:09.075Z,19.48
2019-04-20T16:13:45.763Z,18.77
2019-04-20T16:16:14.180Z,18.27
2019-04-20T16:18:46.450Z,19.82
2019-04-20T16:23:46.346Z,19.17
2019-04-20T16:26:19.808Z,18.98
2019-04-20T16:28:50.722Z,19.25
2019-04-20T16:31:22.679Z,18.95
2019-04-20T16:33:55.608Z,18.32
2019-04-20T16:36:26.142Z,19.87
2019-04-20T16:38:57.407Z,18.95
2019-04-20T16:41:28.448Z,19.10
2019-04-20T16:43:59.573Z,18.35
2019-04-20T16:46:30.343Z,19.37
2019-04-20T16:49:01.160Z,19.25
2019-04-20T16:51:32.520Z,18.73
2019-04-20T16:54:05.690Z,18.95
2019-04-20T16:56:37.073Z,19.50
2019-04-20T16:59:10.320Z,19.98
2019-04-20T17:01:40.664Z,20.02
2019-04-20T17:04:15.389Z,19.87
2019-04-20T17:06:49.718Z,20.20
2019-04-20T17:09:21.896Z,20.68
2019-04-20T17:11:53.995Z,19.67
2019-04-20T17:14:25.641Z,19.80
2019-04-20T17:16:57.733Z,20.97
2019-04-20T17:19:28.856Z,19.50
2019-04-20T17:22:01.152Z,19.75
2019-04-20T17:24:33.495Z,19.40
2019-04-20T17:27:05.880Z,20.65
2019-04-20T17:29:42.770Z,20.05
2019-04-20T17:32:19.164Z,19.48
2019-04-20T17:35:04.609Z,20.25
2019-04-20T17:37:22.651Z,20.80
2019-04-20T17:40:10.821Z,20.10
2019-04-20T17:42:41.625Z,20.15
2019-04-20T17:45:05.069Z,20.25
2019-04-20T17:47:48.436Z,20.00
2019-04-20T17:50:20.273Z,19.02
2019-04-20T17:52:57.893Z,19.27
2019-04-20T17:55:35.606Z,19.67
2019-04-20T17:57:59.396Z,19.80
2019-04-20T18:00:38.651Z,19.02
2019-04-20T18:03:24.617Z,19.30
2019-04-20T18:06:02.696Z,20.68
2019-04-20T18:08:29.967Z,19.37
2019-04-20T18:10:57.379Z,19.27
2019-04-20T18:13:22.447Z,20.50
2019-04-20T18:16:12.851Z,20.85
2019-04-20T18:18:41.433Z,20.55
2019-04-20T18:21:04.748Z,20.62
2019-04-20T18:23:39.950Z,22.30
2019-04-20T18:26:27.223Z,20.92
2019-04-20T18:29:03.494Z,21.17
2019-04-20T18:31:17.730Z,21.55
2019-04-20T18:36:28.250Z,20.68
2019-04-20T18:38:57.483Z,21.40
2019-04-20T18:41:30.928Z,21.27
2019-04-20T18:43:59.106Z,21.87
2019-04-20T18:46:56.982Z,21.23
2019-04-20T18:49:18.239Z,22.05
2019-04-20T18:51:35.674Z,20.70
2019-04-20T18:54:13.684Z,20.80
2019-04-20T18:56:44.034Z,21.87
2019-04-20T18:59:11.763Z,21.12
2019-04-20T19:01:43.777Z,21.62
2019-04-20T19:04:15.183Z,22.20
2019-04-20T19:06:46.188Z,20.85
2019-04-20T19:09:24.234Z,20.80
2019-04-20T19:11:53.439Z,22.05
2019-04-20T19:14:34.487Z,21.40
2019-04-20T19:17:08.975Z,21.42
2019-04-20T19:19:45.039Z,21.62
2019-04-20T19:22:12.141Z,21.33
2019-04-20T19:24:43.595Z,21.00
2019-04-20T19:27:17.120Z,22.07
2019-04-20T19:29:56.468Z,21.17
2019-04-20T19:32:36.890Z,20.60
2019-04-20T19:35:01.619Z,21.10
2019-04-20T19:37:31.176Z,21.48
2019-04-20T19:40:06.717Z,21.17
2019-04-20T19:42:42.294Z,21.40
2019-04-20T19:45:31.741Z,20.00
2019-04-20T19:47:53.155Z,20.32
2019-04-20T19:50:35.615Z,20.35
2019-04-20T19:53:14.387Z,20.93
2019-04-20T19:55:31.679Z,20.27
2019-04-20T19:58:01.430Z,19.42
2019-04-20T20:00:22.851Z,19.35
2019-04-20T20:02:54.116Z,20.08
2019-04-20T20:05:31.449Z,19.07
2019-04-20T20:08:06.478Z,19.50
2019-04-20T20:10:33.868Z,19.42
2019-04-20T20:13:04.305Z,19.55
2019-04-20T20:15:36.242Z,19.37
2019-04-20T20:18:23.130Z,19.48
2019-04-20T20:20:55.280Z,19.30
2019-04-20T20:23:10.316Z,18.98
2019-04-20T20:25:44.640Z,18.67
2019-04-20T20:28:24.501Z,19.40
2019-04-20T20:30:58.154Z,19.02
2019-04-20T20:33:37.951Z,19.23
2019-04-20T20:35:58.000Z,19.45
2019-04-20T20:38:31.295Z,20.32
2019-04-20T20:41:05.638Z,19.95
2019-04-20T20:43:42.414Z,19.35
2019-04-20T20:46:10.654Z,19.15
2019-04-20T20:48:54.331Z,19.48
2019-04-20T20:51:23.254Z,19.32
2019-04-20T20:53:49.326Z,20.25
2019-04-20T20:56:18.497Z,19.62
2019-04-20T20:58:53.954Z,18.82
2019-04-20T21:01:20.314Z,18.90
2019-04-20T21:03:49.094Z,19.85
2019-04-20T21:06:20.123Z,20.10
2019-04-20T21:08:53.772Z,19.75
2019-04-20T21:11:27.519Z,19.77
2019-04-20T21:13:56.239Z,19.45
2019-04-20T21:16:31.900Z,19.25
2019-04-20T21:19:15.424Z,19.25
2019-04-20T21:21:42.531Z,19.25
2019-04-20T21:24:10.865Z,19.25
2019-04-20T21:26:41.947Z,19.55
2019-04-20T21:29:10.559Z,20.12
2019-04-20T21:31:43.451Z,20.30
2019-04-20T21:34:18.638Z,20.62
2019-04-20T21:36:47.167Z,20.10
2019-04-20T21:39:32.425Z,21.25
2019-04-20T21:41:57.235Z,21.00
2019-04-20T21:44:28.458Z,20.65
2019-04-20T21:46:56.301Z,20.48
2019-04-20T21:49:42.397Z,20.70
2019-04-20T21:52:03.610Z,20.77
2019-04-20T21:54:31.947Z,20.95
2019-04-20T21:57:07.455Z,21.05
2019-04-20T21:59:42.698Z,20.48
2019-04-20T22:02:15.069Z,21.50
2019-04-20T22:04:41.098Z,21.62
2019-04-20T22:07:12.481Z,20.90
2019-04-20T22:09:46.779Z,22.22
2019-04-20T22:12:15.997Z,21.55
2019-04-20T22:14:49.683Z,22.85
2019-04-20T22:17:23.381Z,23.20
2019-04-20T22:20:06.091Z,24.27
2019-04-20T22:22:42.444Z,24.85
2019-04-20T22:25:21.597Z,24.72
2019-04-20T22:27:34.847Z,25.32
2019-04-20T22:30:04.091Z,27.82
2019-04-20T22:32:36.689Z,26.68
2019-04-20T22:35:12.522Z,27.82
2019-04-20T22:37:51.333Z,26.70
2019-04-20T22:40:24.981Z,27.10
2019-04-20T22:42:56.144Z,27.15
2019-04-20T22:45:25.430Z,26.42
2019-04-20T22:48:01.316Z,25.70
2019-04-20T22:50:43.555Z,24.57
2019-04-20T22:53:17.896Z,25.52
2019-04-20T22:55:55.122Z,25.20
2019-04-20T22:58:25.034Z,25.75
2019-04-20T23:00:45.267Z,24.63
2019-04-20T23:03:10.441Z,25.17
2019-04-20T23:05:42.658Z,25.50
2019-04-20T23:08:13.320Z,25.72
2019-04-20T23:10:46.829Z,26.73
2019-04-20T23:13:16.469Z,26.05
2019-04-20T23:15:54.142Z,26.10
2019-04-20T23:18:20.218Z,25.60
2019-04-20T23:20:54.558Z,26.90
2019-04-20T23:23:27.032Z,25.05
2019-04-20T23:25:56.767Z,24.18
2019-04-20T23:28:29.048Z,25.25
2019-04-20T23:31:06.657Z,25.70
2019-04-20T23:33:33.806Z,25.20
2019-04-20T23:36:06.353Z,24.23
2019-04-20T23:38:36.821Z,25.32
2019-04-20T23:41:08.013Z,25.52
2019-04-20T23:43:43.259Z,24.55
2019-04-20T23:46:26.008Z,25.97
2019-04-20T23:49:15.833Z,26.90
2019-04-20T23:52:27.081Z,27.27
2019-04-20T23:54:37.576Z,27.50
2019-04-20T23:57:08.121Z,26.52
2019-04-20T23:59:42.847Z,25.10
